createdAt,value
2022-12-25T00:02:18.755Z,5.68
2022-12-25T00:06:21.985Z,7.95
2022-12-25T00:10:25.506Z,6.65
2022-12-25T00:14:29.998Z,8.10
2022-12-25T00:18:33.091Z,8.23
2022-12-25T00:22:36.683Z,5.70
2022-12-25T00:26:40.457Z,7.53
2022-12-25T00:30:45.077Z,4.78
2022-12-25T00:34:49.144Z,5.35
2022-12-25T00:38:52.404Z,5.80
2022-12-25T00:42:55.498Z,8.90
2022-12-25T00:47:00.054Z,5.95
2022-12-25T00:51:05.481Z,4.32
2022-12-25T00:55:08.888Z,5.25
2022-12-25T00:59:12.080Z,7.15
2022-12-25T01:03:17.095Z,6.43
2022-12-25T01:07:20.937Z,9.93
2022-12-25T01:11:23.965Z,5.95
2022-12-25T01:15:27.116Z,8.05
2022-12-25T01:19:31.565Z,9.73
2022-12-25T01:23:36.138Z,6.35
2022-12-25T01:27:39.271Z,7.65
2022-12-25T01:31:42.449Z,8.55
2022-12-25T01:35:46.915Z,7.30
2022-12-25T01:39:50.025Z,8.98
2022-12-25T01:44:25.431Z,9.68
2022-12-25T01:48:31.789Z,7.25
2022-12-25T01:52:36.335Z,10.40
2022-12-25T01:56:40.595Z,10.10
2022-12-25T02:00:43.698Z,12.10
2022-12-25T02:04:51.820Z,9.82
2022-12-25T02:08:56.610Z,9.85
2022-12-25T02:13:00.710Z,11.32
2022-12-25T02:17:12.560Z,8.35
2022-12-25T02:21:43.832Z,7.78
2022-12-25T02:26:05.718Z,5.55
2022-12-25T02:30:13.726Z,9.15
2022-12-25T02:34:26.215Z,8.55
2022-12-25T02:38:36.134Z,7.82
2022-12-25T02:43:02.614Z,8.93
2022-12-25T02:47:40.420Z,10.38
2022-12-25T02:52:04.670Z,8.65
2022-12-25T02:56:25.261Z,8.85
2022-12-25T03:00:45.783Z,6.72
2022-12-25T03:05:09.637Z,6.00
2022-12-25T03:09:33.776Z,9.05
2022-12-25T03:13:40.288Z,12.00
2022-12-25T03:17:42.940Z,8.80
2022-12-25T03:22:04.543Z,14.35
2022-12-25T03:26:26.354Z,9.65
2022-12-25T03:30:56.039Z,10.97
2022-12-25T03:35:24.133Z,10.95
2022-12-25T03:39:54.924Z,7.13
2022-12-25T03:44:30.661Z,7.73
2022-12-25T03:48:54.807Z,11.35
2022-12-25T03:53:19.874Z,9.47
2022-12-25T03:57:41.746Z,7.47
2022-12-25T04:02:02.745Z,9.60
2022-12-25T04:06:23.603Z,7.13
2022-12-25T04:10:43.447Z,9.23
2022-12-25T04:15:05.583Z,12.60
2022-12-25T04:19:27.716Z,12.37
2022-12-25T04:23:48.395Z,6.03
2022-12-25T04:28:08.883Z,7.23
2022-12-25T04:32:30.796Z,9.50
2022-12-25T04:36:33.883Z,9.47
2022-12-25T04:40:37.179Z,8.70
2022-12-25T04:44:40.199Z,11.07
2022-12-25T04:48:44.759Z,6.50
2022-12-25T04:52:47.843Z,8.97
2022-12-25T04:56:50.932Z,15.33
2022-12-25T05:00:53.960Z,6.90
2022-12-25T05:04:58.458Z,7.07
2022-12-25T05:09:01.821Z,11.83
2022-12-25T05:13:04.944Z,8.20
2022-12-25T05:17:08.997Z,10.90
2022-12-25T05:21:13.887Z,11.57
2022-12-25T05:25:17.155Z,9.17
2022-12-25T05:29:20.293Z,11.30
2022-12-25T05:33:23.600Z,18.47
2022-12-25T05:37:29.365Z,17.83
2022-12-25T05:41:34.831Z,13.50
2022-12-25T05:45:40.141Z,14.17
2022-12-25T05:49:44.136Z,18.77
2022-12-25T05:53:54.548Z,19.57
2022-12-25T05:57:58.756Z,31.03
2022-12-25T06:02:04.708Z,44.13
2022-12-25T06:06:08.774Z,30.80
2022-12-25T06:10:17.209Z,28.47
2022-12-25T06:14:27.665Z,28.13
2022-12-25T06:18:30.702Z,27.77
2022-12-25T06:22:34.906Z,29.60
2022-12-25T06:26:42.513Z,30.15
2022-12-25T06:30:49.732Z,29.03
2022-12-25T06:34:52.841Z,36.53
2022-12-25T06:38:56.774Z,33.57
2022-12-25T06:43:04.990Z,33.05
2022-12-25T06:47:10.291Z,38.87
2022-12-25T06:51:13.711Z,32.40
2022-12-25T06:55:16.887Z,40.67
2022-12-25T06:59:25.539Z,40.70
2022-12-25T07:03:30.881Z,38.63
2022-12-25T07:07:34.457Z,28.47
2022-12-25T07:11:37.578Z,34.43
2022-12-25T07:15:42.186Z,33.57
2022-12-25T07:19:45.678Z,33.78
2022-12-25T07:23:56.867Z,32.10
2022-12-25T07:28:01.427Z,30.07
2022-12-25T07:32:06.867Z,37.17
2022-12-25T07:36:13.068Z,32.03
2022-12-25T07:40:17.368Z,26.35
2022-12-25T07:44:20.610Z,27.90
2022-12-25T07:48:25.835Z,33.55
2022-12-25T07:52:29.005Z,24.67
2022-12-25T07:57:01.924Z,29.20
2022-12-25T08:01:13.657Z,27.00
2022-12-25T08:05:18.454Z,26.97
2022-12-25T08:09:21.613Z,35.00
2022-12-25T08:13:31.938Z,25.88
2022-12-25T08:17:36.442Z,94.82
2022-12-25T08:21:43.316Z,40.15
2022-12-25T08:25:49.205Z,100.80
2022-12-25T08:29:54.215Z,56.13
2022-12-25T08:34:02.288Z,27.70
2022-12-25T08:38:07.725Z,27.30
2022-12-25T08:42:17.538Z,20.43
2022-12-25T08:46:20.727Z,36.25
2022-12-25T08:50:27.793Z,33.03
2022-12-25T08:54:33.846Z,31.50
2022-12-25T08:58:38.998Z,38.20
2022-12-25T09:02:44.888Z,21.10
2022-12-25T09:06:48.127Z,16.33
2022-12-25T09:10:54.634Z,17.50
2022-12-25T09:15:23.940Z,12.63
2022-12-25T09:19:27.394Z,11.70
2022-12-25T09:23:31.184Z,11.90
2022-12-25T09:27:39.980Z,13.15
2022-12-25T09:32:22.311Z,12.07
2022-12-25T09:36:26.192Z,9.23
2022-12-25T09:40:33.265Z,11.85
2022-12-25T09:44:41.703Z,15.38
2022-12-25T09:48:51.813Z,9.68
2022-12-25T09:53:00.100Z,10.07
2022-12-25T09:57:03.786Z,7.18
2022-12-25T10:01:20.138Z,10.80
2022-12-25T10:05:40.737Z,7.88
2022-12-25T10:10:00.157Z,10.43
2022-12-25T10:14:19.496Z,8.40
2022-12-25T10:18:46.215Z,8.73
2022-12-25T10:22:53.109Z,7.35
2022-12-25T10:27:02.438Z,7.93
2022-12-25T10:31:18.663Z,5.88
2022-12-25T10:35:25.759Z,6.50
2022-12-25T10:39:30.287Z,7.35
2022-12-25T10:43:40.052Z,8.05
2022-12-25T10:47:43.449Z,10.85
2022-12-25T10:51:48.013Z,5.90
2022-12-25T10:55:59.739Z,5.40
2022-12-25T11:00:07.148Z,7.47
2022-12-25T11:04:39.363Z,6.10
2022-12-25T11:08:54.650Z,7.05
2022-12-25T11:13:03.593Z,7.65
2022-12-25T11:17:22.722Z,4.80
2022-12-25T11:21:28.661Z,8.40
2022-12-25T11:25:35.584Z,5.35
2022-12-25T11:29:48.104Z,4.78
2022-12-25T11:33:56.522Z,8.65
2022-12-25T11:38:03.937Z,7.38
2022-12-25T11:42:15.419Z,7.18
2022-12-25T11:46:25.841Z,6.38
2022-12-25T11:50:34.322Z,4.68
2022-12-25T11:54:45.892Z,7.15
2022-12-25T11:58:54.798Z,6.93
2022-12-25T12:03:02.617Z,8.07
2022-12-25T12:07:09.386Z,4.47
2022-12-25T12:11:21.132Z,5.78
2022-12-25T12:16:14.371Z,9.95
2022-12-25T12:20:30.734Z,10.63
2022-12-25T12:24:38.869Z,6.35
2022-12-25T12:28:47.111Z,6.10
2022-12-25T12:32:53.882Z,8.57
2022-12-25T12:37:07.832Z,7.93
2022-12-25T12:41:14.085Z,9.35
2022-12-25T12:45:23.131Z,8.95
2022-12-25T12:49:28.411Z,4.22
2022-12-25T12:53:34.922Z,8.35
2022-12-25T12:57:42.485Z,4.97
2022-12-25T13:01:54.146Z,3.72
2022-12-25T13:06:02.283Z,10.38
2022-12-25T13:10:21.142Z,6.00
2022-12-25T13:14:25.604Z,7.70
2022-12-25T13:18:29.131Z,5.13
2022-12-25T13:22:34.849Z,6.38
2022-12-25T13:26:41.743Z,6.45
2022-12-25T13:30:45.042Z,8.32
2022-12-25T13:34:48.192Z,3.90
2022-12-25T13:39:03.013Z,8.23
2022-12-25T13:43:12.902Z,5.57
2022-12-25T13:47:26.280Z,8.38
2022-12-25T13:51:31.541Z,10.73
2022-12-25T13:55:41.055Z,9.40
2022-12-25T13:59:46.545Z,12.15
2022-12-25T14:03:50.021Z,13.85
2022-12-25T14:07:57.599Z,5.78
2022-12-25T14:12:05.559Z,8.55
2022-12-25T14:16:10.903Z,7.70
2022-12-25T14:20:27.723Z,5.00
2022-12-25T14:24:32.740Z,12.15
2022-12-25T14:28:38.542Z,5.57
2022-12-25T14:32:46.213Z,7.35
2022-12-25T14:36:53.162Z,6.13
2022-12-25T14:41:03.561Z,7.53
2022-12-25T14:45:26.067Z,9.85
2022-12-25T14:49:33.420Z,11.00
2022-12-25T14:53:42.675Z,8.05
2022-12-25T14:57:49.574Z,8.13
2022-12-25T15:01:56.570Z,7.63
2022-12-25T15:06:06.122Z,9.73
2022-12-25T15:14:40.390Z,10.73
2022-12-25T15:18:48.233Z,6.88
2022-12-25T15:23:18.508Z,7.60
2022-12-25T15:27:21.611Z,12.93
2022-12-25T15:31:52.106Z,9.65
2022-12-25T15:36:29.380Z,9.95
2022-12-25T15:40:38.096Z,13.20
2022-12-25T15:44:41.689Z,11.85
2022-12-25T15:49:18.050Z,9.82
2022-12-25T15:53:22.219Z,11.32
2022-12-25T15:57:57.598Z,14.63
2022-12-25T16:02:02.611Z,15.75
2022-12-25T16:06:08.896Z,10.80
2022-12-25T16:10:18.020Z,9.20
2022-12-25T16:14:25.645Z,9.23
2022-12-25T16:18:56.863Z,12.65
2022-12-25T16:23:00.123Z,16.05
2022-12-25T16:27:37.016Z,17.45
2022-12-25T16:31:43.936Z,6.85
2022-12-25T16:36:23.464Z,9.57
2022-12-25T16:40:29.727Z,12.80
2022-12-25T16:44:33.036Z,14.00
2022-12-25T16:49:12.431Z,22.95
2022-12-25T16:53:15.603Z,18.60
2022-12-25T16:57:52.580Z,12.48
2022-12-25T17:01:55.903Z,27.27
2022-12-25T17:06:02.156Z,14.45
2022-12-25T17:10:06.608Z,14.68
2022-12-25T17:14:14.421Z,12.75
2022-12-25T17:18:47.961Z,8.93
2022-12-25T17:23:23.580Z,11.55
2022-12-25T17:28:02.078Z,28.67
2022-12-25T17:32:05.368Z,29.02
2022-12-25T17:36:13.188Z,21.20
2022-12-25T17:45:27.719Z,21.38
2022-12-25T17:49:59.841Z,31.48
2022-12-25T17:54:50.351Z,19.60
2022-12-25T17:59:28.582Z,71.55
2022-12-25T18:04:00.595Z,65.72
2022-12-25T18:08:38.881Z,59.67
2022-12-25T18:12:45.359Z,63.25
2022-12-25T18:17:19.245Z,45.40
2022-12-25T18:22:00.211Z,16.70
2022-12-25T18:26:30.853Z,12.75
2022-12-25T18:31:08.643Z,10.65
2022-12-25T18:35:46.754Z,11.00
2022-12-25T18:39:54.878Z,10.75
2022-12-25T18:43:58.793Z,13.90
2022-12-25T18:48:35.804Z,16.10
2022-12-25T18:53:10.413Z,12.73
2022-12-25T18:58:01.960Z,13.00
2022-12-25T19:02:31.878Z,17.30
2022-12-25T19:07:05.727Z,13.25
2022-12-25T19:11:09.594Z,12.47
2022-12-25T19:15:13.212Z,12.82
2022-12-25T19:19:22.437Z,11.30
2022-12-25T19:23:27.353Z,11.27
2022-12-25T19:28:09.083Z,11.82
2022-12-25T19:32:47.348Z,12.77
2022-12-25T19:37:19.624Z,13.43
2022-12-25T19:41:50.341Z,10.52
2022-12-25T19:46:26.985Z,12.90
2022-12-25T19:51:14.695Z,17.50
2022-12-25T19:55:41.533Z,18.83
2022-12-25T20:00:18.942Z,8.90
2022-12-25T20:04:55.587Z,16.00
2022-12-25T20:09:33.165Z,10.93
2022-12-25T20:14:30.998Z,12.53
2022-12-25T20:19:09.578Z,14.20
2022-12-25T20:23:13.647Z,12.27
2022-12-25T20:27:47.732Z,16.88
2022-12-25T20:32:25.100Z,11.02
2022-12-25T20:37:06.016Z,16.83
2022-12-25T20:41:40.631Z,18.83
2022-12-25T20:45:45.252Z,11.03
2022-12-25T20:49:53.181Z,14.27
2022-12-25T20:54:25.093Z,12.53
2022-12-25T20:59:00.119Z,10.27
2022-12-25T21:03:36.848Z,15.55
2022-12-25T21:07:41.980Z,15.70
2022-12-25T21:11:47.278Z,15.05
2022-12-25T21:15:52.039Z,18.63
2022-12-25T21:20:27.451Z,21.87
2022-12-25T21:24:30.695Z,15.07
2022-12-25T21:29:11.151Z,13.88
2022-12-25T21:33:54.084Z,14.40
2022-12-25T21:38:06.225Z,20.70
2022-12-25T21:42:10.909Z,9.80
2022-12-25T21:46:45.108Z,10.30
2022-12-25T21:51:41.916Z,12.93
2022-12-25T21:55:59.077Z,13.07
2022-12-25T22:00:21.878Z,14.60
2022-12-25T22:04:25.148Z,17.67
2022-12-25T22:09:03.420Z,17.70
2022-12-25T22:13:24.172Z,17.63
2022-12-25T22:18:01.561Z,16.37
2022-12-25T22:22:20.997Z,22.87
2022-12-25T22:26:25.555Z,18.47
2022-12-25T22:30:30.208Z,16.53
2022-12-25T22:35:03.979Z,14.07
2022-12-25T22:39:44.226Z,19.80
2022-12-25T22:44:18.728Z,19.83
2022-12-25T22:48:59.756Z,12.57
2022-12-25T22:53:30.659Z,15.53
2022-12-25T22:57:33.814Z,12.20
2022-12-25T23:02:11.172Z,18.67
2022-12-25T23:06:47.587Z,17.50
2022-12-25T23:10:51.076Z,20.17
2022-12-25T23:15:12.529Z,14.20
2022-12-25T23:19:33.370Z,13.23
2022-12-25T23:24:10.335Z,12.87
2022-12-25T23:28:35.167Z,19.90
2022-12-25T23:32:45.733Z,17.73
2022-12-25T23:37:18.392Z,14.23
2022-12-25T23:41:52.422Z,16.43
2022-12-25T23:46:31.221Z,18.67
2022-12-25T23:51:09.063Z,16.13
2022-12-25T23:55:55.353Z,15.20
